Time;durP1;ratioP1;P1;durP2;ratioP2;P2;SDS_P1;SDS_P2;PMS_P1;PMS_P2;Temp;Humidity;BMP_temperature;BMP_pressure;BME280_temperature;BME280_humidity;BME280_pressure;Samples;Min_cycle;Max_cycle;Signal;HPM_P1;HPM_P2
2024/03/02 00:01:30;;;;;;;36.30;16.07;;;;;;;;;;7319103;19;20502;-57
2024/03/02 00:03:59;;;;;;;33.57;17.10;;;;;;;;;;7340405;19;20431;-56
2024/03/02 00:06:28;;;;;;;36.60;17.47;;;;;;;;;;7317994;19;20427;-56
2024/03/02 00:09:00;;;;;;;33.23;16.57;;;;;;;;;;7339670;19;20427;-56
2024/03/02 00:11:33;;;;;;;34.83;16.20;;;;;;;;;;7319670;19;20473;-55
2024/03/02 00:14:02;;;;;;;33.10;15.30;;;;;;;;;;7339379;19;20450;-55
2024/03/02 00:16:33;;;;;;;32.10;15.23;;;;;;;;;;7317882;19;20437;-55
2024/03/02 00:19:05;;;;;;;32.20;15.93;;;;;;;;;;7339816;19;20419;-52
2024/03/02 00:21:35;;;;;;;30.83;14.07;;;;;;;;;;7318965;19;20425;-54
2024/03/02 00:24:09;;;;;;;30.20;15.63;;;;;;;;;;7340320;19;20427;-55
2024/03/02 00:26:41;;;;;;;31.37;15.57;;;;;;;;;;7318103;19;20423;-55
2024/03/02 00:29:13;;;;;;;33.63;15.20;;;;;;;;;;7341401;19;20419;-56
2024/03/02 00:31:42;;;;;;;34.70;16.00;;;;;;;;;;7318610;19;20443;-55
2024/03/02 00:34:16;;;;;;;36.33;15.83;;;;;;;;;;7340426;19;20430;-54
2024/03/02 00:36:45;;;;;;;37.20;16.10;;;;;;;;;;7319801;19;20408;-58
2024/03/02 00:39:15;;;;;;;33.87;14.77;;;;;;;;;;7340481;19;20772;-53
2024/03/02 00:41:47;;;;;;;33.57;15.60;;;;;;;;;;7317402;19;20401;-57
2024/03/02 00:44:17;;;;;;;30.93;16.03;;;;;;;;;;7338590;19;20427;-53
2024/03/02 00:46:47;;;;;;;33.33;16.17;;;;;;;;;;7320500;19;20455;-54
2024/03/02 00:49:22;;;;;;;32.97;16.37;;;;;;;;;;7340350;19;20423;-57
2024/03/02 00:51:52;;;;;;;40.10;16.53;;;;;;;;;;7321835;19;20458;-56
2024/03/02 00:54:24;;;;;;;36.70;15.93;;;;;;;;;;7340695;19;20423;-52
2024/03/02 00:56:56;;;;;;;37.40;16.30;;;;;;;;;;7321326;19;20415;-55
2024/03/02 00:59:26;;;;;;;38.87;16.50;;;;;;;;;;7319242;19;20442;-53
2024/03/02 01:01:55;;;;;;;46.03;17.17;;;;;;;;;;7341336;19;20434;-55
2024/03/02 01:04:25;;;;;;;39.93;17.57;;;;;;;;;;7327231;19;20451;-57
2024/03/02 01:06:54;;;;;;;45.30;19.80;;;;;;;;;;7340880;19;20498;-56
2024/03/02 01:09:24;;;;;;;37.43;17.60;;;;;;;;;;7340794;19;20447;-53
2024/03/02 01:11:53;;;;;;;41.17;17.23;;;;;;;;;;7320515;19;20452;-56
2024/03/02 01:14:25;;;;;;;37.80;17.60;;;;;;;;;;7339816;19;20428;-53
2024/03/02 01:16:55;;;;;;;46.70;18.77;;;;;;;;;;7319939;19;20442;-55
2024/03/02 01:19:24;;;;;;;46.30;20.80;;;;;;;;;;7339976;19;20450;-53
2024/03/02 01:21:54;;;;;;;45.60;19.50;;;;;;;;;;7340904;19;20790;-53
2024/03/02 01:24:24;;;;;;;52.13;19.43;;;;;;;;;;7338873;19;20498;-55
2024/03/02 01:26:53;;;;;;;47.40;20.30;;;;;;;;;;7319893;19;20946;-54
2024/03/02 01:29:22;;;;;;;90.37;35.60;;;;;;;;;;7339311;19;20446;-55
2024/03/02 01:31:54;;;;;;;54.70;21.57;;;;;;;;;;7319258;19;20425;-51
2024/03/02 01:34:24;;;;;;;51.70;23.10;;;;;;;;;;7340016;19;20530;-50
2024/03/02 01:36:54;;;;;;;58.47;22.43;;;;;;;;;;7318069;19;20422;-50
2024/03/02 01:39:23;;;;;;;49.03;20.83;;;;;;;;;;7340748;19;20427;-55
2024/03/02 01:41:52;;;;;;;50.10;19.67;;;;;;;;;;7318171;19;20423;-51
2024/03/02 01:44:22;;;;;;;54.40;22.67;;;;;;;;;;7337751;19;20990;-54
2024/03/02 01:46:51;;;;;;;52.20;20.60;;;;;;;;;;7319218;19;20447;-55
2024/03/02 01:49:23;;;;;;;55.93;20.83;;;;;;;;;;7338828;19;20518;-52
2024/03/02 01:51:53;;;;;;;45.07;20.30;;;;;;;;;;7318197;19;21535;-55
2024/03/02 01:54:22;;;;;;;47.43;19.57;;;;;;;;;;7339078;19;20427;-53
2024/03/02 01:56:52;;;;;;;48.17;21.00;;;;;;;;;;7323211;19;20427;-52
2024/03/02 01:59:22;;;;;;;55.63;22.40;;;;;;;;;;7346141;19;20537;-56
2024/03/02 02:01:51;;;;;;;49.43;19.83;;;;;;;;;;7324689;19;20974;-54
2024/03/02 02:04:27;;;;;;;47.23;22.00;;;;;;;;;;7345824;19;20419;-58
2024/03/02 02:06:57;;;;;;;49.07;22.73;;;;;;;;;;7331769;19;20429;-54
2024/03/02 02:09:26;;;;;;;55.73;23.07;;;;;;;;;;7329675;19;20489;-56
2024/03/02 02:11:56;;;;;;;59.53;22.13;;;;;;;;;;7352007;19;20402;-57
2024/03/02 02:14:25;;;;;;;49.67;20.43;;;;;;;;;;7334700;19;20391;-53
2024/03/02 02:16:55;;;;;;;49.47;21.80;;;;;;;;;;7353412;19;20391;-55
2024/03/02 02:19:27;;;;;;;52.50;23.03;;;;;;;;;;7346873;19;20437;-53
2024/03/02 02:21:59;;;;;;;49.63;20.90;;;;;;;;;;7330523;19;20409;-54
2024/03/02 02:24:28;;;;;;;50.87;22.27;;;;;;;;;;7326528;19;20434;-54
2024/03/02 02:26:57;;;;;;;49.77;21.77;;;;;;;;;;7351919;19;20407;-54
2024/03/02 02:29:27;;;;;;;50.90;22.17;;;;;;;;;;7325942;19;20427;-56
2024/03/02 02:31:56;;;;;;;51.53;20.83;;;;;;;;;;7349729;19;20395;-56
2024/03/02 02:34:26;;;;;;;52.17;21.37;;;;;;;;;;7336227;19;20426;-54
2024/03/02 02:36:55;;;;;;;54.93;22.17;;;;;;;;;;7351956;19;20444;-55
2024/03/02 02:39:28;;;;;;;55.80;22.60;;;;;;;;;;7343829;19;21016;-53
2024/03/02 02:41:57;;;;;;;54.90;23.00;;;;;;;;;;7350383;19;20391;-57
2024/03/02 02:44:26;;;;;;;55.63;22.27;;;;;;;;;;7326002;19;20443;-55
2024/03/02 02:46:56;;;;;;;54.30;22.13;;;;;;;;;;7350886;19;20764;-56
2024/03/02 02:49:25;;;;;;;62.10;21.93;;;;;;;;;;7340006;19;20502;-54
2024/03/02 02:51:55;;;;;;;51.47;21.87;;;;;;;;;;7349869;19;20970;-55
2024/03/02 02:54:24;;;;;;;51.03;22.73;;;;;;;;;;7348541;19;20830;-55
2024/03/02 02:56:56;;;;;;;58.10;23.80;;;;;;;;;;7350463;19;20399;-55
2024/03/02 02:59:26;;;;;;;49.23;21.73;;;;;;;;;;7334842;19;20419;-56
2024/03/02 03:01:55;;;;;;;56.33;21.63;;;;;;;;;;7350854;19;20428;-54
2024/03/02 03:04:24;;;;;;;58.27;22.33;;;;;;;;;;7344029;19;20423;-52
2024/03/02 03:06:54;;;;;;;60.20;21.60;;;;;;;;;;7349313;19;20946;-55
2024/03/02 03:09:24;;;;;;;54.20;22.70;;;;;;;;;;7348860;19;20439;-55
2024/03/02 03:11:53;;;;;;;48.10;21.43;;;;;;;;;;7328468;19;20767;-56
2024/03/02 03:14:25;;;;;;;56.60;23.63;;;;;;;;;;7349177;19;20832;-55
2024/03/02 03:16:55;;;;;;;54.40;22.90;;;;;;;;;;7329756;19;20422;-55
2024/03/02 03:19:24;;;;;;;55.60;23.60;;;;;;;;;;7348665;19;20474;-54
2024/03/02 03:21:54;;;;;;;49.37;21.20;;;;;;;;;;7346149;19;20966;-55
2024/03/02 03:24:23;;;;;;;52.83;23.10;;;;;;;;;;7348792;19;20450;-54
2024/03/02 03:26:52;;;;;;;58.70;21.50;;;;;;;;;;7329249;19;20392;-53
2024/03/02 03:29:22;;;;;;;55.80;23.00;;;;;;;;;;7348489;19;20435;-54
2024/03/02 03:31:54;;;;;;;58.47;23.43;;;;;;;;;;7327444;19;20421;-56
2024/03/02 03:34:23;;;;;;;55.77;23.47;;;;;;;;;;7348816;19;20431;-54
2024/03/02 03:36:53;;;;;;;58.40;23.73;;;;;;;;;;7328914;19;20426;-56
2024/03/02 03:39:22;;;;;;;59.70;24.63;;;;;;;;;;7348813;19;20479;-55
2024/03/02 03:41:52;;;;;;;57.80;24.00;;;;;;;;;;7327010;19;20407;-53
2024/03/02 03:44:21;;;;;;;51.43;22.37;;;;;;;;;;7346968;19;20438;-55
2024/03/02 03:46:50;;;;;;;48.70;22.03;;;;;;;;;;7328386;19;20394;-54
2024/03/02 03:49:22;;;;;;;51.43;21.40;;;;;;;;;;7348606;19;20514;-51
2024/03/02 03:51:52;;;;;;;59.03;23.43;;;;;;;;;;7326956;19;20403;-55
2024/03/02 03:54:21;;;;;;;54.70;23.27;;;;;;;;;;7347615;19;20515;-54
2024/03/02 03:56:51;;;;;;;60.00;23.40;;;;;;;;;;7328033;19;20391;-53
2024/03/02 03:59:20;;;;;;;54.90;22.97;;;;;;;;;;7348435;19;20446;-50
2024/03/02 04:01:49;;;;;;;52.33;21.13;;;;;;;;;;7326640;19;21090;-55
2024/03/02 04:04:19;;;;;;;49.73;21.17;;;;;;;;;;7348053;19;20439;-51
2024/03/02 04:06:51;;;;;;;53.27;20.93;;;;;;;;;;7325037;19;20391;-56
2024/03/02 04:09:20;;;;;;;64.53;23.63;;;;;;;;;;7347895;19;20435;-54
2024/03/02 04:11:50;;;;;;;55.13;24.03;;;;;;;;;;7326303;19;20403;-55
2024/03/02 04:14:19;;;;;;;58.73;23.23;;;;;;;;;;7347646;19;20526;-53
2024/03/02 04:16:48;;;;;;;50.53;23.20;;;;;;;;;;7326142;19;20415;-54
2024/03/02 04:19:18;;;;;;;79.40;32.57;;;;;;;;;;7347665;19;20423;-57
2024/03/02 04:21:47;;;;;;;62.33;27.23;;;;;;;;;;7324975;19;20514;-56
2024/03/02 04:24:19;;;;;;;54.57;23.23;;;;;;;;;;7347130;19;20423;-57
2024/03/02 04:26:49;;;;;;;48.57;21.47;;;;;;;;;;7325247;19;20396;-56
2024/03/02 04:29:18;;;;;;;48.23;21.07;;;;;;;;;;7347728;19;20438;-55
2024/03/02 04:31:48;;;;;;;49.03;21.80;;;;;;;;;;7324744;19;20403;-57
2024/03/02 04:34:17;;;;;;;56.80;23.40;;;;;;;;;;7346995;19;20460;-53
2024/03/02 04:36:46;;;;;;;55.90;22.73;;;;;;;;;;7325731;19;20451;-55
2024/03/02 04:39:16;;;;;;;59.03;27.10;;;;;;;;;;7346603;19;20449;-55
2024/03/02 04:41:48;;;;;;;60.83;26.40;;;;;;;;;;7325151;19;20748;-54
2024/03/02 04:44:17;;;;;;;58.17;25.10;;;;;;;;;;7346026;19;20988;-51
2024/03/02 04:46:47;;;;;;;62.60;27.80;;;;;;;;;;7325153;19;20483;-54
2024/03/02 04:49:16;;;;;;;50.37;22.93;;;;;;;;;;7346404;19;20431;-53
2024/03/02 04:51:46;;;;;;;48.37;21.87;;;;;;;;;;7324381;19;20959;-53
2024/03/02 04:54:16;;;;;;;49.17;21.40;;;;;;;;;;7345254;19;20443;-57
2024/03/02 04:56:49;;;;;;;48.20;21.30;;;;;;;;;;7324578;19;20407;-55
2024/03/02 04:59:19;;;;;;;47.37;20.73;;;;;;;;;;7345981;19;20430;-52
2024/03/02 05:01:49;;;;;;;47.83;21.93;;;;;;;;;;7323849;19;20810;-54
2024/03/02 05:04:19;;;;;;;51.77;22.33;;;;;;;;;;7346331;19;20766;-54
2024/03/02 05:06:52;;;;;;;45.27;20.53;;;;;;;;;;7323946;19;20462;-57
2024/03/02 05:09:22;;;;;;;49.97;22.17;;;;;;;;;;7346500;19;20443;-56
2024/03/02 05:12:29;;;;;;;48.23;20.43;;;;;;;;;;7324794;19;20438;-56
2024/03/02 05:14:58;;;;;;;48.80;20.70;;;;;;;;;;7324611;19;20442;-56
2024/03/02 05:17:28;;;;;;;47.80;21.20;;;;;;;;;;7323534;19;21159;-56
2024/03/02 05:19:58;;;;;;;45.20;21.73;;;;;;;;;;7346428;19;20402;-57
2024/03/02 05:22:28;;;;;;;48.47;21.00;;;;;;;;;;7323164;19;20451;-55
2024/03/02 05:24:59;;;;;;;47.07;21.00;;;;;;;;;;7345853;19;20855;-52
2024/03/02 05:27:32;;;;;;;50.17;20.40;;;;;;;;;;7323736;19;20423;-57
2024/03/02 05:30:03;;;;;;;47.10;20.23;;;;;;;;;;7345111;19;20449;-55
2024/03/02 05:32:32;;;;;;;55.10;20.13;;;;;;;;;;7322814;19;20883;-58
2024/03/02 05:35:02;;;;;;;50.70;21.10;;;;;;;;;;7345060;19;20391;-55
2024/03/02 05:37:32;;;;;;;44.50;20.00;;;;;;;;;;7323666;19;20419;-52
2024/03/02 05:40:02;;;;;;;44.10;19.17;;;;;;;;;;7345531;19;20426;-51
2024/03/02 05:42:34;;;;;;;43.80;19.10;;;;;;;;;;7322637;19;20423;-57
2024/03/02 05:45:03;;;;;;;44.63;20.23;;;;;;;;;;7344811;19;20952;-54
2024/03/02 05:47:33;;;;;;;44.57;20.33;;;;;;;;;;7322544;19;20456;-53
2024/03/02 05:50:03;;;;;;;45.50;21.70;;;;;;;;;;7345122;19;20415;-54
2024/03/02 05:52:33;;;;;;;49.30;20.07;;;;;;;;;;7322988;19;20431;-58
2024/03/02 05:55:02;;;;;;;47.97;20.33;;;;;;;;;;7344165;19;20392;-54
2024/03/02 05:57:49;;;;;;;43.10;19.03;;;;;;;;;;7323325;19;20427;-56
2024/03/02 06:00:19;;;;;;;40.70;20.00;;;;;;;;;;7344289;19;20430;-53
2024/03/02 06:02:48;;;;;;;42.70;20.40;;;;;;;;;;7321855;19;20431;-53
2024/03/02 06:05:18;;;;;;;49.47;20.53;;;;;;;;;;7343596;19;20426;-54
2024/03/02 06:07:48;;;;;;;43.10;19.27;;;;;;;;;;7322165;19;20456;-56
2024/03/02 06:10:17;;;;;;;39.83;19.03;;;;;;;;;;7343392;19;20522;-56
2024/03/02 06:12:49;;;;;;;49.17;20.50;;;;;;;;;;7322309;19;20407;-56
2024/03/02 06:15:19;;;;;;;60.30;25.77;;;;;;;;;;7343365;19;20415;-53
2024/03/02 06:17:48;;;;;;;42.90;21.70;;;;;;;;;;7322553;19;20467;-53
2024/03/02 06:20:18;;;;;;;40.63;19.40;;;;;;;;;;7343650;19;20435;-55
2024/03/02 06:22:47;;;;;;;38.50;18.67;;;;;;;;;;7321095;19;20425;-55
2024/03/02 06:25:17;;;;;;;36.40;17.93;;;;;;;;;;7342956;19;20428;-54
2024/03/02 06:27:46;;;;;;;34.40;16.70;;;;;;;;;;7322032;19;20911;-55
2024/03/02 06:30:18;;;;;;;36.73;17.27;;;;;;;;;;7343626;19;20427;-57
2024/03/02 06:32:48;;;;;;;33.27;15.50;;;;;;;;;;7319326;19;20399;-54
2024/03/02 06:35:17;;;;;;;34.37;16.50;;;;;;;;;;7342904;19;20463;-56
2024/03/02 06:37:47;;;;;;;29.57;15.83;;;;;;;;;;7322038;19;21152;-54
2024/03/02 06:40:16;;;;;;;33.80;15.47;;;;;;;;;;7343030;19;20423;-56
2024/03/02 06:42:45;;;;;;;32.83;16.50;;;;;;;;;;7322304;19;20392;-58
2024/03/02 06:45:15;;;;;;;32.57;16.00;;;;;;;;;;7348664;19;20419;-53
2024/03/02 06:47:47;;;;;;;37.77;17.33;;;;;;;;;;7328719;19;20384;-53
2024/03/02 06:50:17;;;;;;;60.93;33.50;;;;;;;;;;7349794;19;20482;-54
2024/03/02 06:52:46;;;;;;;78.07;39.97;;;;;;;;;;7328139;19;20392;-56
2024/03/02 06:55:15;;;;;;;43.30;23.13;;;;;;;;;;7348941;19;21363;-56
2024/03/02 06:57:45;;;;;;;35.67;18.47;;;;;;;;;;7329168;19;20391;-54
2024/03/02 07:00:15;;;;;;;34.50;17.93;;;;;;;;;;7350026;19;20431;-54
2024/03/02 07:02:47;;;;;;;37.03;17.80;;;;;;;;;;7327176;19;20419;-52
2024/03/02 07:05:17;;;;;;;37.33;16.57;;;;;;;;;;7349347;19;20894;-55
2024/03/02 07:07:46;;;;;;;90.63;44.97;;;;;;;;;;7327528;19;20387;-54
2024/03/02 07:10:15;;;;;;;41.10;18.83;;;;;;;;;;7348998;19;20431;-56
2024/03/02 07:12:45;;;;;;;40.37;19.13;;;;;;;;;;7327516;19;20407;-55
2024/03/02 07:15:28;;;;;;;39.70;15.90;;;;;;;;;;7347751;19;20450;-52
2024/03/02 07:18:01;;;;;;;29.50;14.83;;;;;;;;;;7323541;19;20423;-58
2024/03/02 07:20:30;;;;;;;35.07;16.23;;;;;;;;;;7326054;19;20507;-57
2024/03/02 07:23:00;;;;;;;32.70;16.93;;;;;;;;;;7350319;19;20493;-57
2024/03/02 07:25:29;;;;;;;40.77;17.13;;;;;;;;;;7325850;19;20507;-56
2024/03/02 07:28:01;;;;;;;37.40;16.53;;;;;;;;;;7349431;19;20475;-53
2024/03/02 07:30:31;;;;;;;36.53;17.10;;;;;;;;;;7325975;19;20971;-56
2024/03/02 07:33:05;;;;;;;41.97;18.73;;;;;;;;;;7349068;19;20468;-55
2024/03/02 07:35:34;;;;;;;35.00;18.40;;;;;;;;;;7325272;19;20437;-53
2024/03/02 07:38:04;;;;;;;36.37;17.73;;;;;;;;;;7349997;19;20419;-52
2024/03/02 07:40:33;;;;;;;42.10;19.50;;;;;;;;;;7325688;19;20419;-51
2024/03/02 07:43:03;;;;;;;35.57;17.40;;;;;;;;;;7349067;19;20415;-53
2024/03/02 07:45:32;;;;;;;37.70;17.97;;;;;;;;;;7324981;19;20483;-55
2024/03/02 07:48:05;;;;;;;38.00;16.40;;;;;;;;;;7348398;19;20487;-54
2024/03/02 07:50:35;;;;;;;37.20;17.07;;;;;;;;;;7325676;19;20431;-52
2024/03/02 07:53:04;;;;;;;40.43;17.27;;;;;;;;;;7345214;19;20502;-53
2024/03/02 07:55:34;;;;;;;36.67;18.90;;;;;;;;;;7319053;19;20495;-52
2024/03/02 07:58:03;;;;;;;35.80;17.20;;;;;;;;;;7341451;19;20498;-52
2024/03/02 08:00:33;;;;;;;34.47;17.27;;;;;;;;;;7318293;19;20424;-53
2024/03/02 08:03:06;;;;;;;44.50;17.70;;;;;;;;;;7341895;19;20420;-53
2024/03/02 08:05:35;;;;;;;39.00;16.90;;;;;;;;;;7317018;19;20427;-51
2024/03/02 08:08:05;;;;;;;35.83;16.30;;;;;;;;;;7341328;19;20427;-50
2024/03/02 08:10:34;;;;;;;37.17;18.43;;;;;;;;;;7317466;19;20829;-52
2024/03/02 08:13:03;;;;;;;39.50;16.87;;;;;;;;;;7341274;19;20437;-54
2024/03/02 08:15:33;;;;;;;40.30;17.27;;;;;;;;;;7316719;19;20427;-52
2024/03/02 08:18:06;;;;;;;39.60;17.20;;;;;;;;;;7340909;19;20435;-56
2024/03/02 08:20:35;;;;;;;36.73;17.53;;;;;;;;;;7318650;19;20427;-55
2024/03/02 08:23:05;;;;;;;35.33;16.60;;;;;;;;;;7339584;19;20506;-50
2024/03/02 08:25:34;;;;;;;33.40;15.73;;;;;;;;;;7317782;19;20444;-53
2024/03/02 08:28:04;;;;;;;36.10;16.17;;;;;;;;;;7341188;19;20431;-56
2024/03/02 08:30:34;;;;;;;37.33;17.57;;;;;;;;;;7318226;19;20425;-53
2024/03/02 08:33:06;;;;;;;33.67;16.10;;;;;;;;;;7339863;19;20427;-52
2024/03/02 08:35:36;;;;;;;32.53;16.10;;;;;;;;;;7317112;19;20423;-54
2024/03/02 08:38:06;;;;;;;36.20;16.90;;;;;;;;;;7340749;19;20439;-57
2024/03/02 08:40:35;;;;;;;38.37;17.17;;;;;;;;;;7317431;19;20458;-55
2024/03/02 08:43:05;;;;;;;32.63;15.90;;;;;;;;;;7341359;19;20419;-51
2024/03/02 08:45:35;;;;;;;33.97;16.03;;;;;;;;;;7315735;19;20757;-51
2024/03/02 08:48:08;;;;;;;33.90;16.00;;;;;;;;;;7339924;19;21014;-54
2024/03/02 08:50:37;;;;;;;35.30;15.90;;;;;;;;;;7317603;19;21457;-53
2024/03/02 08:53:07;;;;;;;35.57;16.80;;;;;;;;;;7340259;19;20415;-51
2024/03/02 08:55:36;;;;;;;42.80;17.47;;;;;;;;;;7317240;19;20430;-55
2024/03/02 08:58:06;;;;;;;29.83;14.63;;;;;;;;;;7340355;19;20419;-53
2024/03/02 09:00:35;;;;;;;32.57;16.30;;;;;;;;;;7317463;19;20427;-55
2024/03/02 09:03:07;;;;;;;34.80;15.90;;;;;;;;;;7340612;19;20518;-52
2024/03/02 09:05:37;;;;;;;33.53;15.60;;;;;;;;;;7315024;19;20443;-54
2024/03/02 09:08:07;;;;;;;33.23;15.93;;;;;;;;;;7339428;19;20427;-52
2024/03/02 09:10:38;;;;;;;32.13;14.80;;;;;;;;;;7316606;19;20429;-52
2024/03/02 09:13:07;;;;;;;31.00;15.70;;;;;;;;;;7340548;19;20431;-55
2024/03/02 09:15:39;;;;;;;30.23;14.70;;;;;;;;;;7317165;19;20434;-52
2024/03/02 09:18:11;;;;;;;31.73;15.37;;;;;;;;;;7340529;19;20456;-56
2024/03/02 09:20:41;;;;;;;32.77;16.20;;;;;;;;;;7317442;19;20427;-52
2024/03/02 09:23:11;;;;;;;30.80;14.77;;;;;;;;;;7340606;19;20789;-52
2024/03/02 09:25:40;;;;;;;35.27;16.90;;;;;;;;;;7316577;19;20503;-53
2024/03/02 09:28:10;;;;;;;33.67;15.37;;;;;;;;;;7339305;19;20795;-56
2024/03/02 09:30:39;;;;;;;35.87;15.30;;;;;;;;;;7317548;19;20986;-54
2024/03/02 09:33:08;;;;;;;35.07;14.40;;;;;;;;;;7338397;19;20431;-54
2024/03/02 09:35:43;;;;;;;31.63;15.50;;;;;;;;;;7316511;19;20470;-52
2024/03/02 09:38:13;;;;;;;33.13;14.67;;;;;;;;;;7339035;19;20436;-54
2024/03/02 09:40:44;;;;;;;32.30;15.10;;;;;;;;;;7315897;19;20431;-56
2024/03/02 09:43:13;;;;;;;31.03;14.37;;;;;;;;;;7336953;19;20426;-54
2024/03/02 09:45:43;;;;;;;29.87;15.03;;;;;;;;;;7315214;19;20437;-53
2024/03/02 09:48:12;;;;;;;32.70;15.37;;;;;;;;;;7339555;19;20435;-52
2024/03/02 09:50:46;;;;;;;29.90;15.63;;;;;;;;;;7315945;19;21056;-57
2024/03/02 09:53:17;;;;;;;39.80;15.27;;;;;;;;;;7337238;19;20500;-53
2024/03/02 09:55:48;;;;;;;29.80;14.43;;;;;;;;;;7315515;19;20419;-54
2024/03/02 09:58:17;;;;;;;29.57;14.67;;;;;;;;;;7339288;19;20427;-53
2024/03/02 10:00:47;;;;;;;26.90;15.03;;;;;;;;;;7315280;19;20419;-51
2024/03/02 10:03:16;;;;;;;27.07;13.33;;;;;;;;;;7338955;19;21362;-50
2024/03/02 10:05:48;;;;;;;27.00;14.23;;;;;;;;;;7315345;19;20970;-52
2024/03/02 10:08:18;;;;;;;29.83;14.07;;;;;;;;;;7339073;19;20429;-55
2024/03/02 10:10:47;;;;;;;29.57;14.67;;;;;;;;;;7313637;19;20942;-55
2024/03/02 10:13:17;;;;;;;26.43;12.50;;;;;;;;;;7338992;19;20492;-52
2024/03/02 10:15:47;;;;;;;26.63;13.50;;;;;;;;;;7315344;19;20410;-56
2024/03/02 10:18:16;;;;;;;26.47;13.17;;;;;;;;;;7344747;19;20423;-51
2024/03/02 10:20:49;;;;;;;22.40;12.03;;;;;;;;;;7323629;19;20589;-56
2024/03/02 10:23:18;;;;;;;26.27;12.60;;;;;;;;;;7346037;19;20433;-51
2024/03/02 10:25:48;;;;;;;24.40;14.23;;;;;;;;;;7321558;19;20914;-55
2024/03/02 10:28:28;;;;;;;27.73;15.47;;;;;;;;;;7333022;19;20447;-55
2024/03/02 10:30:57;;;;;;;25.63;13.27;;;;;;;;;;7344146;19;20475;-55
2024/03/02 10:33:27;;;;;;;26.20;12.40;;;;;;;;;;7326267;19;20450;-54
2024/03/02 10:35:59;;;;;;;31.80;15.17;;;;;;;;;;7344607;19;20424;-54
2024/03/02 10:38:28;;;;;;;34.90;19.50;;;;;;;;;;7322678;19;20451;-56
2024/03/02 10:40:59;;;;;;;36.53;17.60;;;;;;;;;;7344035;19;20522;-51
2024/03/02 10:43:29;;;;;;;29.63;15.70;;;;;;;;;;7320358;19;20420;-53
2024/03/02 10:45:59;;;;;;;36.93;17.83;;;;;;;;;;7343837;19;20432;-55
2024/03/02 10:48:29;;;;;;;42.07;17.90;;;;;;;;;;7320538;19;20965;-51
2024/03/02 10:51:02;;;;;;;22.80;11.00;;;;;;;;;;7344127;19;20543;-52
2024/03/02 10:53:31;;;;;;;22.93;13.57;;;;;;;;;;7321469;19;20506;-51
2024/03/02 10:56:04;;;;;;;22.73;11.90;;;;;;;;;;7343617;19;20834;-52
2024/03/02 10:58:34;;;;;;;21.93;10.77;;;;;;;;;;7320556;19;20450;-54
2024/03/02 11:01:05;;;;;;;23.67;11.60;;;;;;;;;;7343840;19;21027;-53
2024/03/02 11:03:37;;;;;;;24.47;11.63;;;;;;;;;;7320805;19;20426;-56
2024/03/02 11:06:10;;;;;;;20.70;11.20;;;;;;;;;;7341738;19;20440;-53
2024/03/02 11:08:42;;;;;;;18.77;10.50;;;;;;;;;;7322411;19;20502;-52
2024/03/02 11:11:16;;;;;;;19.90;10.43;;;;;;;;;;7343265;19;20465;-53
2024/03/02 11:13:49;;;;;;;20.77;11.03;;;;;;;;;;7321080;19;20922;-54
2024/03/02 11:16:25;;;;;;;22.43;11.27;;;;;;;;;;7343870;19;20435;-50
2024/03/02 11:18:55;;;;;;;22.03;11.07;;;;;;;;;;7322021;19;20511;-56
2024/03/02 11:21:27;;;;;;;17.90;9.97;;;;;;;;;;7343185;19;21003;-55
2024/03/02 11:23:57;;;;;;;25.33;10.67;;;;;;;;;;7321225;19;20456;-54
2024/03/02 11:26:28;;;;;;;27.70;10.47;;;;;;;;;;7329452;19;21013;-53
2024/03/02 11:29:00;;;;;;;22.07;9.80;;;;;;;;;;7340751;19;20428;-54
2024/03/02 11:31:44;;;;;;;18.10;9.10;;;;;;;;;;7319866;19;20447;-53
2024/03/02 11:34:20;;;;;;;18.20;9.00;;;;;;;;;;7342089;19;20425;-55
2024/03/02 11:36:52;;;;;;;21.47;9.70;;;;;;;;;;7320550;19;20388;-52
2024/03/02 11:39:21;;;;;;;18.13;8.80;;;;;;;;;;7341391;19;20428;-52
2024/03/02 11:41:51;;;;;;;19.00;9.13;;;;;;;;;;7320872;19;20461;-51
2024/03/02 11:44:19;;;;;;;18.30;9.33;;;;;;;;;;7340359;19;20430;-56
2024/03/02 11:46:49;;;;;;;19.13;9.47;;;;;;;;;;7320889;19;20400;-54
2024/03/02 11:49:23;;;;;;;20.23;9.67;;;;;;;;;;7341539;19;20418;-53
2024/03/02 11:52:03;;;;;;;16.93;8.77;;;;;;;;;;7320223;19;20409;-55
2024/03/02 11:54:33;;;;;;;18.20;8.30;;;;;;;;;;7319254;19;20428;-52
2024/03/02 11:57:04;;;;;;;16.93;8.80;;;;;;;;;;7341343;19;20510;-55
2024/03/02 11:59:33;;;;;;;17.13;8.63;;;;;;;;;;7318283;19;20426;-54
2024/03/02 12:02:03;;;;;;;14.03;7.67;;;;;;;;;;7340444;19;20528;-55
2024/03/02 12:04:33;;;;;;;11.63;6.47;;;;;;;;;;7319022;19;20428;-51
2024/03/02 12:07:05;;;;;;;13.70;7.27;;;;;;;;;;7341339;19;20467;-53
2024/03/02 12:09:35;;;;;;;13.13;7.00;;;;;;;;;;7319306;19;20433;-56
2024/03/02 12:12:06;;;;;;;15.30;6.73;;;;;;;;;;7340408;19;21361;-52
2024/03/02 12:14:35;;;;;;;16.43;7.37;;;;;;;;;;7318824;19;20429;-56
2024/03/02 12:17:05;;;;;;;14.17;7.63;;;;;;;;;;7338909;19;21079;-55
2024/03/02 12:19:35;;;;;;;17.57;7.33;;;;;;;;;;7317820;19;20429;-55
2024/03/02 12:22:07;;;;;;;14.87;6.20;;;;;;;;;;7339977;19;20940;-56
2024/03/02 12:24:37;;;;;;;14.30;6.57;;;;;;;;;;7318975;19;20436;-59
2024/03/02 12:27:07;;;;;;;10.03;5.50;;;;;;;;;;7340969;19;20447;-56
2024/03/02 12:29:36;;;;;;;12.10;6.23;;;;;;;;;;7319104;19;20429;-56
2024/03/02 12:32:07;;;;;;;12.33;6.10;;;;;;;;;;7340583;19;20577;-57
2024/03/02 12:34:37;;;;;;;12.50;5.33;;;;;;;;;;7318346;19;20492;-51
2024/03/02 12:37:09;;;;;;;9.43;5.30;;;;;;;;;;7340603;19;20446;-56
2024/03/02 12:39:38;;;;;;;14.53;6.83;;;;;;;;;;7318694;19;20425;-54
2024/03/02 12:42:08;;;;;;;13.10;6.40;;;;;;;;;;7340849;19;20836;-56
2024/03/02 12:44:38;;;;;;;12.23;6.33;;;;;;;;;;7316880;19;21016;-55
2024/03/02 12:47:08;;;;;;;14.60;7.57;;;;;;;;;;7341481;19;20495;-55
2024/03/02 12:49:37;;;;;;;14.27;6.83;;;;;;;;;;7317641;19;20503;-52
2024/03/02 12:52:09;;;;;;;17.17;8.40;;;;;;;;;;7339691;19;20841;-55
2024/03/02 12:54:39;;;;;;;14.60;7.03;;;;;;;;;;7317296;19;21076;-53
2024/03/02 12:57:08;;;;;;;14.17;6.70;;;;;;;;;;7340674;19;20476;-57
2024/03/02 12:59:38;;;;;;;14.20;6.70;;;;;;;;;;7317684;19;20431;-57
2024/03/02 13:02:07;;;;;;;12.90;6.93;;;;;;;;;;7339974;19;20441;-55
2024/03/02 13:04:37;;;;;;;17.40;8.10;;;;;;;;;;7315963;19;20427;-55
2024/03/02 13:07:07;;;;;;;15.63;7.30;;;;;;;;;;7340319;19;20425;-52
2024/03/02 13:09:40;;;;;;;16.63;7.30;;;;;;;;;;7314908;19;20424;-56
2024/03/02 13:12:12;;;;;;;17.07;7.50;;;;;;;;;;7339151;19;20446;-54
2024/03/02 13:14:41;;;;;;;18.57;8.63;;;;;;;;;;7303771;19;20425;-56
2024/03/02 13:17:11;;;;;;;15.97;7.87;;;;;;;;;;7337637;19;20441;-54
2024/03/02 13:19:40;;;;;;;16.57;9.10;;;;;;;;;;7317265;19;20423;-52
2024/03/02 13:22:09;;;;;;;15.30;8.80;;;;;;;;;;7339651;19;20530;-56
2024/03/02 13:24:42;;;;;;;18.63;9.13;;;;;;;;;;7316411;19;20427;-55
2024/03/02 13:27:12;;;;;;;16.10;8.20;;;;;;;;;;7338480;19;20978;-54
2024/03/02 13:29:41;;;;;;;16.60;9.10;;;;;;;;;;7316811;19;20434;-51
2024/03/02 13:32:10;;;;;;;16.13;8.80;;;;;;;;;;7338267;19;20429;-55
2024/03/02 13:34:40;;;;;;;16.90;8.93;;;;;;;;;;7316144;19;20423;-55
2024/03/02 13:37:09;;;;;;;16.90;9.63;;;;;;;;;;7339537;19;20423;-55
2024/03/02 13:39:42;;;;;;;14.23;8.03;;;;;;;;;;7316831;19;20443;-53
2024/03/02 13:42:14;;;;;;;17.40;8.90;;;;;;;;;;7337834;19;20435;-53
2024/03/02 13:44:47;;;;;;;14.60;7.50;;;;;;;;;;7313910;19;20962;-51
2024/03/02 13:47:16;;;;;;;13.93;7.20;;;;;;;;;;7335171;19;20446;-56
2024/03/02 13:49:48;;;;;;;13.10;7.00;;;;;;;;;;7316468;19;20763;-55
2024/03/02 13:52:18;;;;;;;15.50;8.40;;;;;;;;;;7341003;19;20430;-56
2024/03/02 13:54:52;;;;;;;13.63;7.30;;;;;;;;;;7323620;19;20392;-55
2024/03/02 13:57:22;;;;;;;12.77;7.10;;;;;;;;;;7346271;19;20446;-55
2024/03/02 13:59:55;;;;;;;17.73;8.87;;;;;;;;;;7324443;19;20419;-54
2024/03/02 14:02:25;;;;;;;18.07;8.27;;;;;;;;;;7346319;19;20419;-55
2024/03/02 14:04:55;;;;;;;13.80;7.80;;;;;;;;;;7324040;19;20452;-57
2024/03/02 14:07:24;;;;;;;18.07;8.57;;;;;;;;;;7346021;19;20506;-55
2024/03/02 14:09:56;;;;;;;14.87;7.97;;;;;;;;;;7324784;19;21001;-56
2024/03/02 14:12:26;;;;;;;17.80;9.17;;;;;;;;;;7332168;19;20430;-55
2024/03/02 14:14:58;;;;;;;17.53;9.23;;;;;;;;;;7343625;19;20419;-58
2024/03/02 14:17:27;;;;;;;13.67;7.47;;;;;;;;;;7327782;19;21166;-57
2024/03/02 14:19:58;;;;;;;17.03;8.77;;;;;;;;;;7344299;19;20965;-54
2024/03/02 14:22:28;;;;;;;15.00;8.60;;;;;;;;;;7323414;19;20427;-56
2024/03/02 14:25:00;;;;;;;15.73;7.87;;;;;;;;;;7344019;19;20415;-56
2024/03/02 14:27:29;;;;;;;13.20;8.03;;;;;;;;;;7322953;19;20423;-55
2024/03/02 14:30:19;;;;;;;15.37;7.90;;;;;;;;;;7345524;19;20419;-54
2024/03/02 14:32:48;;;;;;;11.80;7.30;;;;;;;;;;7322226;19;20445;-56
2024/03/02 14:35:18;;;;;;;14.53;7.77;;;;;;;;;;7343028;19;21009;-55
2024/03/02 14:37:48;;;;;;;27.90;17.73;;;;;;;;;;7323057;19;20431;-56